createdAt,value
2022-12-20T00:01:52.307Z,99550.88
2022-12-20T00:04:20.048Z,99538.75
2022-12-20T00:06:47.699Z,99550.88
2022-12-20T00:09:15.349Z,99547.41
2022-12-20T00:11:44.448Z,99555.22
2022-12-20T00:14:12.126Z,99558.69
2022-12-20T00:16:40.029Z,99538.81
2022-12-20T00:19:08.366Z,99547.44
2022-12-20T00:21:36.755Z,99550.88
2022-12-20T00:24:05.031Z,99549.16
2022-12-20T00:26:34.192Z,99546.53
2022-12-20T00:29:03.151Z,99543.94
2022-12-20T00:31:31.970Z,99524.06
2022-12-20T00:34:01.110Z,99538.75
2022-12-20T00:36:30.351Z,99531.84
2022-12-20T00:39:00.226Z,99530.13
2022-12-20T00:41:29.071Z,99522.34
2022-12-20T00:43:56.893Z,99508.50
2022-12-20T00:46:26.635Z,99519.75
2022-12-20T00:48:55.195Z,99485.13
2022-12-20T00:51:25.954Z,99523.22
2022-12-20T00:53:53.824Z,99536.19
2022-12-20T00:56:21.529Z,99524.06
2022-12-20T00:58:49.405Z,99516.28
2022-12-20T01:01:20.792Z,99529.25
2022-12-20T01:03:50.327Z,99521.47
2022-12-20T01:06:18.986Z,99524.94
2022-12-20T01:08:46.609Z,99493.75
2022-12-20T01:11:16.520Z,99501.59
2022-12-20T01:13:45.884Z,99517.16
2022-12-20T01:16:15.977Z,99530.16
2022-12-20T01:18:43.656Z,99531.88
2022-12-20T01:21:15.032Z,99531.03
2022-12-20T01:23:43.058Z,99533.59
2022-12-20T01:26:14.028Z,99533.63
2022-12-20T01:28:43.371Z,99518.91
2022-12-20T01:31:11.606Z,99519.78
2022-12-20T01:33:38.456Z,99520.66
2022-12-20T01:36:06.481Z,99518.06
2022-12-20T01:38:36.669Z,99489.53
2022-12-20T01:41:05.214Z,99516.34
2022-12-20T01:43:48.807Z,99465.28
2022-12-20T01:46:16.810Z,99451.47
2022-12-20T01:48:47.017Z,99474.81
2022-12-20T01:51:16.514Z,99498.19
2022-12-20T01:53:45.680Z,99442.81
2022-12-20T01:56:13.378Z,99468.75
2022-12-20T01:58:41.568Z,99487.78
2022-12-20T02:01:09.389Z,99441.06
2022-12-20T02:03:37.632Z,99423.78
2022-12-20T02:06:17.218Z,99490.41
2022-12-20T02:08:47.956Z,99449.72
2022-12-20T02:11:26.277Z,99478.28
2022-12-20T02:14:03.219Z,99459.25
2022-12-20T02:16:35.221Z,99471.38
2022-12-20T02:19:14.154Z,99455.81
2022-12-20T02:21:44.504Z,99451.47
2022-12-20T02:24:42.633Z,99439.38
2022-12-20T02:27:46.897Z,99441.97
2022-12-20T02:30:22.826Z,99439.38
2022-12-20T02:32:55.597Z,99436.78
2022-12-20T02:35:26.154Z,99442.84
2022-12-20T02:37:55.642Z,99438.50
2022-12-20T02:40:25.788Z,99431.59
2022-12-20T02:42:56.115Z,99428.13
2022-12-20T02:45:30.092Z,99426.41
2022-12-20T02:48:00.912Z,99419.47
2022-12-20T02:50:32.956Z,99418.63
2022-12-20T02:53:00.810Z,99419.47
2022-12-20T02:55:35.186Z,99421.22
2022-12-20T02:58:06.607Z,99427.25
2022-12-20T03:00:39.549Z,99443.69
2022-12-20T03:03:25.797Z,99441.97
2022-12-20T03:05:56.011Z,99439.38
2022-12-20T03:08:24.591Z,99430.72
2022-12-20T03:10:53.422Z,99424.66
2022-12-20T03:13:21.445Z,99428.13
2022-12-20T03:15:50.354Z,99420.34
2022-12-20T03:18:17.975Z,99415.16
2022-12-20T03:20:45.721Z,99412.56
2022-12-20T03:23:13.422Z,99414.28
2022-12-20T03:25:41.100Z,99409.97
2022-12-20T03:28:08.693Z,99408.25
2022-12-20T03:30:36.400Z,99403.91
2022-12-20T03:33:05.522Z,99399.59
2022-12-20T03:35:33.156Z,99389.22
2022-12-20T03:38:00.922Z,99384.88
2022-12-20T03:40:28.519Z,99397.00
2022-12-20T03:42:56.173Z,99371.94
2022-12-20T03:45:23.772Z,99403.91
2022-12-20T03:47:51.331Z,99409.97
2022-12-20T03:50:20.387Z,99406.50
2022-12-20T03:52:47.942Z,99427.25
2022-12-20T03:55:15.579Z,99419.47
2022-12-20T03:57:43.165Z,99415.16
2022-12-20T04:00:12.651Z,99420.34
2022-12-20T04:02:40.440Z,99417.75
2022-12-20T04:05:09.101Z,99417.75
2022-12-20T04:07:38.150Z,99410.84
2022-12-20T04:10:07.137Z,99405.63
2022-12-20T04:12:34.783Z,99400.47
2022-12-20T04:15:02.483Z,99396.13
2022-12-20T04:17:32.074Z,99402.19
2022-12-20T04:20:18.696Z,99401.31
2022-12-20T04:22:47.884Z,99384.88
2022-12-20T04:25:16.571Z,99383.16
2022-12-20T04:27:44.235Z,99371.91
2022-12-20T04:30:12.922Z,99365.84
2022-12-20T04:32:40.627Z,99371.91
2022-12-20T04:35:08.898Z,99367.59
2022-12-20T04:37:36.506Z,99382.28
2022-12-20T04:40:06.628Z,99376.25
2022-12-20T04:42:34.291Z,99384.88
2022-12-20T04:45:01.902Z,99385.75
2022-12-20T04:47:29.545Z,99377.97
2022-12-20T04:49:57.142Z,99380.56
2022-12-20T04:52:47.724Z,99376.22
2022-12-20T04:55:17.577Z,99372.75
2022-12-20T04:57:45.678Z,99363.25
2022-12-20T05:00:15.276Z,99369.28
2022-12-20T05:02:43.446Z,99337.31
2022-12-20T05:05:11.198Z,99359.78
2022-12-20T05:07:38.816Z,99370.16
2022-12-20T05:10:07.363Z,99357.19
2022-12-20T05:12:36.266Z,99373.63
2022-12-20T05:15:04.491Z,99384.00
2022-12-20T05:17:32.036Z,99373.63
2022-12-20T05:20:00.091Z,99371.03
2022-12-20T05:22:45.291Z,99364.97
2022-12-20T05:25:31.239Z,99357.19
2022-12-20T05:28:00.306Z,99357.16
2022-12-20T05:30:28.298Z,99352.84
2022-12-20T05:32:56.456Z,99350.25
2022-12-20T05:35:24.063Z,99341.59
2022-12-20T05:37:51.877Z,99347.66
2022-12-20T05:40:19.519Z,99343.34
2022-12-20T05:42:47.112Z,99347.66
2022-12-20T05:45:16.222Z,99330.34
2022-12-20T05:47:43.784Z,99318.25
2022-12-20T05:50:18.335Z,99320.84
2022-12-20T05:52:46.710Z,99300.97
2022-12-20T05:55:14.328Z,99304.41
2022-12-20T05:57:41.891Z,99326.84
2022-12-20T06:00:10.828Z,99330.34
2022-12-20T06:02:40.183Z,99321.69
2022-12-20T06:05:08.433Z,99333.78
2022-12-20T06:07:36.063Z,99341.56
2022-12-20T06:10:03.636Z,99329.44
2022-12-20T06:12:31.271Z,99327.72
2022-12-20T06:14:58.844Z,99313.84
2022-12-20T06:17:26.425Z,99322.47
2022-12-20T06:19:55.402Z,99322.44
2022-12-20T06:22:23.004Z,99328.53
2022-12-20T06:24:50.630Z,99329.41
2022-12-20T06:27:18.637Z,99339.81
2022-12-20T06:29:51.898Z,99339.81
2022-12-20T06:32:19.610Z,99336.34
2022-12-20T06:34:47.261Z,99331.09
2022-12-20T06:37:16.192Z,99334.53
2022-12-20T06:39:43.836Z,99338.84
2022-12-20T06:42:11.454Z,99337.97
2022-12-20T06:44:39.113Z,99325.91
2022-12-20T06:47:06.740Z,99336.25
2022-12-20T06:49:34.383Z,99332.78
2022-12-20T06:52:02.082Z,99325.88
2022-12-20T06:54:31.065Z,99325.84
2022-12-20T06:56:58.702Z,99330.16
2022-12-20T06:59:26.604Z,99328.44
2022-12-20T07:01:54.484Z,99329.31
2022-12-20T07:04:22.303Z,99313.75
2022-12-20T07:06:50.066Z,99318.91
2022-12-20T07:09:17.756Z,99316.38
2022-12-20T07:11:46.675Z,99327.59
2022-12-20T07:14:14.320Z,99311.19
2022-12-20T07:16:46.202Z,99315.53
2022-12-20T07:19:14.280Z,99309.50
2022-12-20T07:21:42.082Z,99274.13
2022-12-20T07:24:10.087Z,99306.91
2022-12-20T07:26:37.742Z,99314.69
2022-12-20T07:29:10.556Z,99306.03
2022-12-20T07:31:42.791Z,99310.38
2022-12-20T07:34:11.775Z,99311.25
2022-12-20T07:36:39.698Z,99318.16
2022-12-20T07:39:07.380Z,99306.03
2022-12-20T07:41:35.046Z,99306.88
2022-12-20T07:44:03.110Z,99308.59
2022-12-20T07:46:32.133Z,99303.41
2022-12-20T07:48:59.865Z,99300.75
2022-12-20T07:51:29.694Z,99292.91
2022-12-20T07:54:00.373Z,99299.09
2022-12-20T07:56:28.484Z,99299.94
2022-12-20T07:58:58.448Z,99293.88
2022-12-20T08:01:27.340Z,99295.56
2022-12-20T08:04:01.763Z,99292.09
2022-12-20T08:06:29.816Z,99291.22
2022-12-20T08:09:00.117Z,99293.81
2022-12-20T08:11:29.112Z,99288.63
2022-12-20T08:13:58.280Z,99289.47
2022-12-20T08:16:26.709Z,99297.25
2022-12-20T08:18:55.990Z,99289.50
2022-12-20T08:21:23.689Z,99281.59
2022-12-20T08:23:51.813Z,99287.69
2022-12-20T08:26:19.447Z,99276.50
2022-12-20T08:28:47.086Z,99281.69
2022-12-20T08:31:14.876Z,99264.34
2022-12-20T08:33:42.674Z,99266.91
2022-12-20T08:36:14.574Z,99265.16
2022-12-20T08:38:42.469Z,99258.22
2022-12-20T08:41:11.714Z,99266.00
2022-12-20T08:43:39.896Z,99260.78
2022-12-20T08:46:08.135Z,99211.56
2022-12-20T08:48:35.947Z,99264.13
2022-12-20T08:51:05.525Z,99266.72
2022-12-20T08:53:35.584Z,99275.41
2022-12-20T08:56:07.506Z,99277.13
2022-12-20T08:58:35.584Z,99270.16
2022-12-20T09:01:06.823Z,99275.34
2022-12-20T09:03:35.296Z,99276.22
2022-12-20T09:06:06.654Z,99273.56
2022-12-20T09:08:36.009Z,99270.91
2022-12-20T09:11:07.416Z,99279.56
2022-12-20T09:13:41.437Z,99280.44
2022-12-20T09:16:11.981Z,99274.31
2022-12-20T09:18:39.637Z,99263.88
2022-12-20T09:21:08.029Z,99270.88
2022-12-20T09:23:37.898Z,99254.34
2022-12-20T09:26:06.917Z,99266.44
2022-12-20T09:28:35.170Z,99266.44
2022-12-20T09:31:03.637Z,99258.56
2022-12-20T09:33:32.170Z,99247.28
2022-12-20T09:36:00.342Z,99252.44
2022-12-20T09:38:28.953Z,99255.03
2022-12-20T09:41:00.106Z,99248.09
2022-12-20T09:43:28.323Z,99248.03
2022-12-20T09:45:57.115Z,99248.03
2022-12-20T09:48:26.886Z,99248.03
2022-12-20T09:51:04.687Z,99246.25
2022-12-20T09:53:38.457Z,99237.50
2022-12-20T09:56:12.023Z,99227.13
2022-12-20T09:58:58.081Z,99224.47
2022-12-20T10:01:32.631Z,99229.66
2022-12-20T10:04:07.024Z,99231.38
2022-12-20T10:06:43.655Z,99230.47
2022-12-20T10:09:15.165Z,99221.72
2022-12-20T10:11:54.437Z,99219.97
2022-12-20T10:14:35.584Z,99223.41
2022-12-20T10:17:06.202Z,99221.69
2022-12-20T10:19:56.909Z,99224.28
2022-12-20T10:22:27.462Z,99215.56
2022-12-20T10:25:00.395Z,99225.13
2022-12-20T10:27:29.373Z,99227.63
2022-12-20T10:29:56.950Z,99224.97
2022-12-20T10:32:26.036Z,99229.25
2022-12-20T10:34:58.488Z,99224.88
2022-12-20T10:37:26.121Z,99222.22
2022-12-20T10:39:53.848Z,99222.25
2022-12-20T10:42:27.003Z,99219.75
2022-12-20T10:44:56.670Z,99221.56
2022-12-20T10:47:40.110Z,99212.88
2022-12-20T10:50:15.616Z,99214.59
2022-12-20T10:52:43.317Z,99218.00
2022-12-20T10:55:34.286Z,99206.69
2022-12-20T10:58:04.432Z,99203.16
2022-12-20T11:00:33.839Z,99194.31
2022-12-20T11:03:13.747Z,99199.44
2022-12-20T11:05:41.588Z,99176.78
2022-12-20T11:11:16.986Z,99194.84
2022-12-20T11:13:45.584Z,99180.91
2022-12-20T11:16:36.420Z,99183.41
2022-12-20T11:19:17.344Z,99170.34
2022-12-20T11:21:49.234Z,99166.91
2022-12-20T11:24:23.756Z,99159.81
2022-12-20T11:27:01.808Z,99157.31
2022-12-20T11:30:00.899Z,99149.53
2022-12-20T11:32:43.062Z,99140.81
2022-12-20T11:35:16.037Z,99134.69
2022-12-20T11:37:49.133Z,99132.03
2022-12-20T11:40:26.815Z,99125.91
2022-12-20T11:43:16.078Z,99120.56
2022-12-20T11:45:56.658Z,99112.56
2022-12-20T11:48:38.317Z,99112.53
2022-12-20T11:51:15.209Z,99115.06
2022-12-20T11:53:49.003Z,99101.44
2022-12-20T11:56:18.550Z,99101.13
2022-12-20T11:58:51.771Z,99110.91
2022-12-20T12:01:21.954Z,99110.97
2022-12-20T12:04:01.744Z,99110.06
2022-12-20T12:06:32.715Z,99101.28
2022-12-20T12:09:07.987Z,99096.06
2022-12-20T12:14:32.725Z,99081.47
2022-12-20T12:17:07.709Z,99078.91
2022-12-20T12:19:37.973Z,99094.50
2022-12-20T12:22:08.735Z,99095.25
2022-12-20T12:24:40.360Z,99091.03
2022-12-20T12:27:16.040Z,99093.28
2022-12-20T12:29:44.060Z,99082.09
2022-12-20T12:32:18.374Z,99087.53
2022-12-20T12:35:00.499Z,99077.78
2022-12-20T12:37:40.314Z,99056.72
2022-12-20T12:40:24.997Z,99055.75
2022-12-20T12:43:41.104Z,99035.31
2022-12-20T12:46:16.345Z,99029.06
2022-12-20T12:48:47.470Z,99021.09
2022-12-20T12:51:17.346Z,99027.47
2022-12-20T12:53:49.688Z,99011.63
2022-12-20T12:56:44.579Z,99013.53
2022-12-20T12:59:51.806Z,99020.63
2022-12-20T13:02:50.104Z,99024.00
2022-12-20T13:05:36.575Z,99017.81
2022-12-20T13:08:17.015Z,99015.91
2022-12-20T13:11:02.809Z,99034.69
2022-12-20T13:13:30.475Z,99042.34
2022-12-20T13:16:48.753Z,99037.38
2022-12-20T13:19:17.972Z,99033.84
2022-12-20T13:21:46.679Z,99034.75
2022-12-20T13:24:42.401Z,99026.94
2022-12-20T13:27:30.412Z,99031.28
2022-12-20T13:30:18.768Z,99036.34
2022-12-20T13:33:25.802Z,99032.84
2022-12-20T13:36:01.903Z,99034.13
2022-12-20T13:38:51.672Z,99039.44
2022-12-20T13:41:40.230Z,99037.13
2022-12-20T13:44:22.628Z,99034.56
2022-12-20T13:46:53.402Z,99024.69
2022-12-20T13:49:25.710Z,99030.28
2022-12-20T13:52:13.071Z,99028.38
2022-12-20T13:54:42.181Z,99009.75
2022-12-20T13:57:16.663Z,98995.91
2022-12-20T13:59:47.326Z,99001.59
2022-12-20T14:02:21.484Z,98995.91
2022-12-20T14:04:57.144Z,98986.56
2022-12-20T14:07:24.761Z,98984.06
2022-12-20T14:09:58.042Z,98978.84
2022-12-20T14:12:34.428Z,98991.94
2022-12-20T14:15:20.245Z,98984.31
2022-12-20T14:17:47.971Z,98988.53
2022-12-20T14:20:17.123Z,99012.00
2022-12-20T14:22:52.260Z,99006.75
2022-12-20T14:25:27.893Z,99012.00
2022-12-20T14:27:57.246Z,99001.41
2022-12-20T14:30:30.184Z,98995.38
2022-12-20T14:32:58.008Z,98983.84
2022-12-20T14:35:26.095Z,98981.47
2022-12-20T14:37:55.624Z,98977.94
2022-12-20T14:40:23.790Z,98987.22
2022-12-20T14:42:51.638Z,98980.59
2022-12-20T14:45:26.675Z,98976.31
2022-12-20T14:48:03.143Z,98974.56
2022-12-20T14:50:32.750Z,98968.56
2022-12-20T14:53:01.052Z,98968.47
2022-12-20T14:55:34.205Z,98977.09
2022-12-20T14:58:01.839Z,98984.94
2022-12-20T15:00:32.050Z,98973.59
2022-12-20T15:03:03.420Z,98966.75
2022-12-20T15:05:57.193Z,98964.22
2022-12-20T15:08:28.177Z,98959.94
2022-12-20T15:11:03.481Z,98962.56
2022-12-20T15:13:33.038Z,98956.19
2022-12-20T15:16:04.461Z,98962.91
2022-12-20T15:18:32.494Z,98955.47
2022-12-20T15:21:06.228Z,98956.50
2022-12-20T15:23:34.344Z,98949.63
2022-12-20T15:26:02.810Z,98963.28
2022-12-20T15:28:30.562Z,98963.47
2022-12-20T15:30:58.527Z,98950.59
2022-12-20T15:33:28.990Z,98961.00
2022-12-20T15:35:57.463Z,98942.72
2022-12-20T15:38:54.656Z,98953.09
2022-12-20T15:41:20.241Z,98950.59
2022-12-20T15:43:48.589Z,98949.06
2022-12-20T15:46:16.282Z,98933.41
2022-12-20T15:48:45.325Z,98929.13
2022-12-20T15:51:16.818Z,98924.78
2022-12-20T15:53:44.789Z,98925.56
2022-12-20T15:56:19.063Z,98942.97
2022-12-20T15:58:47.386Z,98943.81
2022-12-20T16:01:18.786Z,98949.06
2022-12-20T16:03:47.953Z,98961.25
2022-12-20T16:06:15.633Z,98969.91
2022-12-20T16:08:43.284Z,98957.81
2022-12-20T16:11:20.399Z,98969.97
2022-12-20T16:13:48.262Z,98961.25
2022-12-20T16:16:18.334Z,98956.22
2022-12-20T16:18:47.542Z,98951.97
2022-12-20T16:21:18.581Z,98955.41
2022-12-20T16:23:46.129Z,98965.78
2022-12-20T16:26:14.645Z,98958.81
2022-12-20T16:28:42.235Z,98959.63
2022-12-20T16:31:12.509Z,98957.91
2022-12-20T16:33:40.117Z,98958.66
2022-12-20T16:36:11.042Z,98957.97
2022-12-20T16:38:38.617Z,98944.94
2022-12-20T16:41:13.801Z,98947.31
2022-12-20T16:43:41.541Z,98942.97
2022-12-20T16:46:12.338Z,98939.25
2022-12-20T16:48:40.183Z,98955.00
2022-12-20T16:51:25.831Z,98933.50
2022-12-20T16:54:18.203Z,98932.88
2022-12-20T16:56:41.755Z,98941.63
2022-12-20T16:59:25.130Z,98936.50
2022-12-20T17:01:54.550Z,98928.69
2022-12-20T17:04:23.039Z,98933.16
2022-12-20T17:06:51.920Z,98933.88
2022-12-20T17:09:20.148Z,98927.88
2022-12-20T17:11:49.987Z,98926.94
2022-12-20T17:14:18.335Z,98926.72
2022-12-20T17:16:45.963Z,98917.13
2022-12-20T17:19:13.777Z,98919.44
2022-12-20T17:24:31.574Z,98923.28
2022-12-20T17:27:00.284Z,98935.31
2022-12-20T17:29:28.043Z,98925.81
2022-12-20T17:31:55.801Z,98923.19
2022-12-20T17:34:26.271Z,98920.47
2022-12-20T17:36:55.337Z,98921.31
2022-12-20T17:39:23.208Z,98921.19
2022-12-20T17:41:53.987Z,98912.44
2022-12-20T17:44:23.795Z,98922.91
2022-12-20T17:46:51.636Z,98913.38
2022-12-20T17:49:19.630Z,98916.91
2022-12-20T17:51:47.780Z,98919.25
2022-12-20T17:54:18.788Z,98914.88
2022-12-20T17:56:46.581Z,98911.28
2022-12-20T17:59:15.689Z,98912.13
2022-12-20T18:01:44.304Z,98920.84
2022-12-20T18:04:13.625Z,98906.91
2022-12-20T18:06:42.954Z,98904.22
2022-12-20T18:09:14.802Z,98903.38
2022-12-20T18:11:42.730Z,98899.00
2022-12-20T18:14:10.721Z,98901.59
2022-12-20T18:16:40.309Z,98897.28
2022-12-20T18:19:08.807Z,98890.38
2022-12-20T18:21:36.365Z,98887.75
2022-12-20T18:24:04.109Z,98895.50
2022-12-20T18:26:33.342Z,98893.72
2022-12-20T18:29:03.402Z,98896.28
2022-12-20T18:31:33.161Z,98902.47
2022-12-20T18:34:02.879Z,98899.84
2022-12-20T18:36:32.224Z,98893.78
2022-12-20T18:39:00.792Z,98885.94
2022-12-20T18:41:30.631Z,98887.59
2022-12-20T18:43:59.662Z,98877.16
2022-12-20T18:46:27.897Z,98874.59
2022-12-20T18:48:57.368Z,98884.28
2022-12-20T18:51:27.846Z,98881.69
2022-12-20T18:53:56.809Z,98876.22
2022-12-20T18:56:28.754Z,98886.78
2022-12-20T18:58:57.509Z,98888.47
2022-12-20T19:01:27.734Z,98884.31
2022-12-20T19:03:56.122Z,98878.34
2022-12-20T19:06:24.280Z,98884.22
2022-12-20T19:08:53.210Z,98889.41
2022-12-20T19:11:24.070Z,98893.72
2022-12-20T19:13:52.298Z,98888.34
2022-12-20T19:16:21.522Z,98885.72
2022-12-20T19:18:49.631Z,98888.31
2022-12-20T19:21:18.422Z,98884.91
2022-12-20T19:23:48.451Z,98881.38
2022-12-20T19:26:18.415Z,98881.38
2022-12-20T19:28:46.951Z,98884.06
2022-12-20T19:31:21.636Z,98886.72
2022-12-20T19:33:50.339Z,98880.59
2022-12-20T19:36:20.436Z,98878.84
2022-12-20T19:38:50.502Z,98894.47
2022-12-20T19:41:20.680Z,98878.03
2022-12-20T19:43:49.161Z,98882.31
2022-12-20T19:46:17.074Z,98893.63
2022-12-20T19:48:44.728Z,98884.13
2022-12-20T19:51:15.498Z,98884.13
2022-12-20T19:53:44.607Z,98878.00
2022-12-20T19:56:13.889Z,98864.31
2022-12-20T19:58:43.078Z,98874.69
2022-12-20T20:01:11.766Z,98873.69
2022-12-20T20:03:39.984Z,98872.81
2022-12-20T20:06:08.615Z,98860.75
2022-12-20T20:08:36.553Z,98866.75
2022-12-20T20:11:09.361Z,98866.06
2022-12-20T20:13:38.191Z,98868.44
2022-12-20T20:16:08.339Z,98876.31
2022-12-20T20:18:37.926Z,98873.63
2022-12-20T20:21:08.557Z,98866.66
2022-12-20T20:23:37.542Z,98865.88
2022-12-20T20:26:08.184Z,98873.47
2022-12-20T20:28:43.749Z,98874.19
2022-12-20T20:31:15.698Z,98875.91
2022-12-20T20:33:43.933Z,98883.69
2022-12-20T20:36:14.335Z,98876.66
2022-12-20T20:38:46.004Z,98857.75
2022-12-20T20:41:18.180Z,98869.75
2022-12-20T20:43:47.174Z,98857.44
2022-12-20T20:46:17.066Z,98865.97
2022-12-20T20:48:48.304Z,98864.34
2022-12-20T20:51:17.031Z,98864.44
2022-12-20T20:53:44.645Z,98854.03
2022-12-20T20:56:12.338Z,98854.94
2022-12-20T20:58:40.353Z,98858.53
2022-12-20T21:01:09.402Z,98856.81
2022-12-20T21:03:40.060Z,98854.34
2022-12-20T21:08:55.997Z,98854.13
2022-12-20T21:11:24.417Z,98852.22
2022-12-20T21:13:52.138Z,98845.59
2022-12-20T21:16:22.220Z,98847.34
2022-12-20T21:18:53.029Z,98843.34
2022-12-20T21:21:21.258Z,98833.88
2022-12-20T21:23:49.364Z,98834.00
2022-12-20T21:26:18.250Z,98822.00
2022-12-20T21:28:45.979Z,98833.97
2022-12-20T21:31:14.712Z,98833.81
2022-12-20T21:33:42.474Z,98820.06
2022-12-20T21:36:13.793Z,98828.31
2022-12-20T21:38:41.595Z,98832.06
2022-12-20T21:41:11.736Z,98820.78
2022-12-20T21:43:39.404Z,98823.69
2022-12-20T21:46:11.053Z,98814.09
2022-12-20T21:48:39.447Z,98816.81
2022-12-20T21:51:09.997Z,98817.44
2022-12-20T21:53:42.965Z,98812.63
2022-12-20T21:56:10.599Z,98806.38
2022-12-20T21:58:38.635Z,98794.16
2022-12-20T22:01:07.859Z,98797.47
2022-12-20T22:03:36.612Z,98788.75
2022-12-20T22:06:05.123Z,98795.63
2022-12-20T22:08:33.192Z,98793.00
2022-12-20T22:11:04.015Z,98792.88
2022-12-20T22:13:37.218Z,98799.66
2022-12-20T22:16:08.703Z,98791.53
2022-12-20T22:18:36.680Z,98787.84
2022-12-20T22:21:04.383Z,98791.19
2022-12-20T22:23:32.211Z,98781.63
2022-12-20T22:26:03.871Z,98789.41
2022-12-20T22:28:31.521Z,98754.38
2022-12-20T22:30:59.143Z,98794.63
2022-12-20T22:33:26.853Z,98799.22
2022-12-20T22:35:54.481Z,98784.50
2022-12-20T22:38:22.082Z,98799.25
2022-12-20T22:40:49.727Z,98803.13
2022-12-20T22:43:18.664Z,98812.63
2022-12-20T22:45:57.247Z,98802.44
2022-12-20T22:48:24.899Z,98800.00
2022-12-20T22:50:59.311Z,98797.31
2022-12-20T22:53:27.037Z,98793.78
2022-12-20T22:55:54.843Z,98788.53
2022-12-20T22:58:24.710Z,98792.19
2022-12-20T23:00:52.314Z,98800.63
2022-12-20T23:03:19.990Z,98790.88
2022-12-20T23:05:55.056Z,98790.66
2022-12-20T23:08:23.728Z,98770.78
2022-12-20T23:11:08.912Z,98781.97
2022-12-20T23:13:56.591Z,98777.69
2022-12-20T23:16:24.820Z,98779.28
2022-12-20T23:18:55.162Z,98781.72
2022-12-20T23:21:40.456Z,98788.69
2022-12-20T23:24:08.443Z,98780.00
2022-12-20T23:26:36.298Z,98783.06
2022-12-20T23:29:06.054Z,98774.81
2022-12-20T23:31:34.233Z,98781.56
2022-12-20T23:34:02.587Z,98779.84
2022-12-20T23:36:30.331Z,98778.75
2022-12-20T23:38:58.019Z,98772.78
2022-12-20T23:41:25.601Z,98773.81
2022-12-20T23:43:53.135Z,98779.81
2022-12-20T23:46:22.673Z,98777.19
2022-12-20T23:48:50.828Z,98772.09
2022-12-20T23:51:18.983Z,98766.09
2022-12-20T23:53:46.518Z,98770.34
2022-12-20T23:56:15.877Z,98766.75
2022-12-20T23:58:43.683Z,98756.34
